Time;durP1;ratioP1;P1;durP2;ratioP2;P2;SDS_P1;SDS_P2;PMS_P1;PMS_P2;Temp;Humidity;BMP_temperature;BMP_pressure;BME280_temperature;BME280_humidity;BME280_pressure;Samples;Min_cycle;Max_cycle;Signal;HPM_P1;HPM_P2
2021/12/12 00:01:24;;;;;;;23.33;1.77;;;;;;;;;;5035756;28;20068;-58
2021/12/12 00:03:53;;;;;;;14.43;1.83;;;;;;;;;;5036571;28;20502;-59
2021/12/12 00:06:28;;;;;;;24.02;1.45;;;;;;;;;;5039659;28;20051;-58
2021/12/12 00:09:00;;;;;;;11.25;1.52;;;;;;;;;;5036676;28;20033;-59
2021/12/12 00:11:30;;;;;;;12.32;2.17;;;;;;;;;;5036157;28;20029;-59
2021/12/12 00:14:09;;;;;;;21.92;2.70;;;;;;;;;;5038240;28;20025;-59
2021/12/12 00:16:35;;;;;;;11.40;1.52;;;;;;;;;;5040536;28;20032;-59
2021/12/12 00:19:03;;;;;;;12.38;1.98;;;;;;;;;;5042247;28;20029;-59
2021/12/12 00:21:31;;;;;;;19.38;2.40;;;;;;;;;;5037656;28;20443;-59
2021/12/12 00:23:57;;;;;;;10.10;1.95;;;;;;;;;;5045203;28;20505;-59
2021/12/12 00:26:23;;;;;;;14.85;2.00;;;;;;;;;;5043130;28;23026;-59
2021/12/12 00:28:49;;;;;;;16.15;1.75;;;;;;;;;;5032482;28;20099;-59
2021/12/12 00:31:17;;;;;;;21.27;3.53;;;;;;;;;;5040704;28;20037;-59
2021/12/12 00:33:49;;;;;;;11.45;1.92;;;;;;;;;;5040135;28;20163;-58
2021/12/12 00:36:17;;;;;;;21.03;2.80;;;;;;;;;;5042809;28;20518;-59
2021/12/12 00:38:47;;;;;;;12.13;1.55;;;;;;;;;;5035411;28;20376;-59
2021/12/12 00:41:19;;;;;;;7.10;1.40;;;;;;;;;;5054571;28;20091;-59
2021/12/12 00:43:50;;;;;;;13.75;1.80;;;;;;;;;;5040743;28;20041;-58
2021/12/12 00:46:18;;;;;;;15.60;1.83;;;;;;;;;;5040649;28;20044;-59
2021/12/12 00:48:47;;;;;;;16.65;1.95;;;;;;;;;;5043840;28;20020;-58
2021/12/12 00:51:15;;;;;;;19.55;1.60;;;;;;;;;;5044511;28;20024;-58
2021/12/12 00:53:42;;;;;;;17.85;1.90;;;;;;;;;;5042823;28;20021;-59
2021/12/12 00:56:09;;;;;;;12.77;1.55;;;;;;;;;;5039337;28;20468;-59
2021/12/12 00:58:35;;;;;;;8.38;1.55;;;;;;;;;;5038639;28;20033;-58
2021/12/12 01:01:07;;;;;;;14.73;1.73;;;;;;;;;;5038608;28;20128;-59
2021/12/12 01:03:40;;;;;;;20.50;1.85;;;;;;;;;;5042934;28;21438;-59
2021/12/12 01:06:08;;;;;;;12.07;1.55;;;;;;;;;;5033101;28;20122;-59
2021/12/12 01:08:34;;;;;;;20.80;1.60;;;;;;;;;;5042824;28;20037;-59
2021/12/12 01:11:08;;;;;;;17.02;2.03;;;;;;;;;;5036999;28;20418;-59
2021/12/12 01:13:35;;;;;;;7.53;1.50;;;;;;;;;;5037515;28;20083;-59
2021/12/12 01:16:11;;;;;;;9.88;1.70;;;;;;;;;;5039551;28;20188;-59
2021/12/12 01:18:42;;;;;;;15.65;1.95;;;;;;;;;;5040999;28;20036;-57
2021/12/12 01:21:17;;;;;;;16.58;1.95;;;;;;;;;;5037649;28;20056;-59
2021/12/12 01:23:57;;;;;;;15.30;2.45;;;;;;;;;;5039988;28;20038;-59
2021/12/12 01:26:22;;;;;;;10.75;1.77;;;;;;;;;;5041475;28;20048;-59
2021/12/12 01:28:54;;;;;;;17.70;2.50;;;;;;;;;;5041905;28;20033;-58
2021/12/12 01:31:25;;;;;;;18.67;2.13;;;;;;;;;;5043195;28;20705;-59
2021/12/12 01:34:09;;;;;;;21.25;3.50;;;;;;;;;;5041250;28;20032;-58
2021/12/12 01:37:03;;;;;;;8.70;1.40;;;;;;;;;;5039902;28;20032;-59
2021/12/12 01:39:36;;;;;;;18.15;2.13;;;;;;;;;;5042514;28;20056;-59
2021/12/12 01:42:20;;;;;;;;;;;;;;;;;;5037081;28;20048;-59
2021/12/12 01:45:20;;;;;;;9.32;1.67;;;;;;;;;;5038353;28;19944;-59
2021/12/12 01:47:56;;;;;;;20.27;2.45;;;;;;;;;;5039214;28;20407;-59
2021/12/12 01:50:25;;;;;;;16.13;2.28;;;;;;;;;;5040749;28;20152;-59
2021/12/12 01:52:52;;;;;;;8.98;1.70;;;;;;;;;;5038307;28;20581;-59
2021/12/12 01:55:25;;;;;;;23.35;1.98;;;;;;;;;;5044184;28;20052;-59
2021/12/12 01:57:56;;;;;;;14.73;1.65;;;;;;;;;;5038563;28;20048;-58
2021/12/12 02:00:33;;;;;;;18.45;2.13;;;;;;;;;;5039169;28;20094;-58
2021/12/12 02:03:01;;;;;;;17.50;1.75;;;;;;;;;;5035616;28;20021;-58
2021/12/12 02:05:28;;;;;;;14.45;2.05;;;;;;;;;;5026687;28;20081;-58
2021/12/12 02:08:01;;;;;;;8.82;1.30;;;;;;;;;;5032381;28;20057;-59
2021/12/12 02:10:35;;;;;;;19.02;2.08;;;;;;;;;;5034724;28;20025;-59
2021/12/12 02:13:05;;;;;;;16.23;1.98;;;;;;;;;;5033792;28;20090;-59
2021/12/12 02:15:34;;;;;;;7.63;1.60;;;;;;;;;;5037594;28;20028;-59
2021/12/12 02:17:59;;;;;;;14.35;1.73;;;;;;;;;;5034439;28;20491;-59
2021/12/12 02:20:40;;;;;;;17.48;2.53;;;;;;;;;;5032655;28;20052;-59
2021/12/12 02:23:42;;;;;;;13.77;1.90;;;;;;;;;;5035965;28;20042;-59
2021/12/12 02:36:59;;;;;;;13.60;1.95;;;;;;;;;;5028739;28;20783;-58
2021/12/12 02:39:25;;;;;;;15.40;2.10;;;;;;;;;;5042511;28;20029;-58
2021/12/12 02:41:54;;;;;;;13.05;1.92;;;;;;;;;;5037113;28;20036;-59
2021/12/12 02:44:26;;;;;;;13.70;1.70;;;;;;;;;;5033445;28;20033;-58
2021/12/12 02:46:54;;;;;;;17.60;2.47;;;;;;;;;;5029238;28;20076;-58
2021/12/12 02:49:36;;;;;;;12.73;1.55;;;;;;;;;;5033435;28;20029;-59
2021/12/12 02:52:04;;;;;;;8.55;1.77;;;;;;;;;;5030136;28;20041;-59
2021/12/12 02:54:29;;;;;;;15.27;2.45;;;;;;;;;;5035976;28;20068;-59
2021/12/12 02:56:55;;;;;;;14.32;2.03;;;;;;;;;;5030493;28;20064;-60
2021/12/12 02:59:23;;;;;;;15.65;1.90;;;;;;;;;;5037852;28;20543;-58
2021/12/12 03:01:48;;;;;;;9.57;1.40;;;;;;;;;;5032045;28;20037;-58
2021/12/12 03:04:14;;;;;;;7.20;1.70;;;;;;;;;;5037795;28;20510;-59
2021/12/12 03:06:42;;;;;;;13.85;1.80;;;;;;;;;;5041255;28;20565;-58
2021/12/12 03:09:19;;;;;;;17.10;1.80;;;;;;;;;;5030989;28;20029;-56
2021/12/12 03:11:48;;;;;;;12.10;2.25;;;;;;;;;;5034916;28;20103;-59
2021/12/12 03:14:14;;;;;;;20.02;1.98;;;;;;;;;;5033223;28;20025;-59
2021/12/12 03:16:40;;;;;;;18.38;1.98;;;;;;;;;;5036177;28;20453;-58
2021/12/12 03:19:07;;;;;;;22.20;2.13;;;;;;;;;;5031954;28;20037;-58
2021/12/12 03:21:37;;;;;;;14.07;2.90;;;;;;;;;;5035536;28;20055;-58
2021/12/12 03:24:07;;;;;;;18.63;1.77;;;;;;;;;;5036792;28;20038;-59
2021/12/12 03:26:32;;;;;;;12.30;1.60;;;;;;;;;;5034056;28;20066;-59
2021/12/12 03:29:00;;;;;;;17.13;2.83;;;;;;;;;;5037856;28;20040;-59
2021/12/12 03:31:39;;;;;;;15.40;2.25;;;;;;;;;;5032732;28;20405;-62
2021/12/12 03:34:11;;;;;;;9.00;2.15;;;;;;;;;;5036183;28;20115;-59
2021/12/12 03:36:37;;;;;;;;;;;;;;;;;;5039283;28;20033;-57
2021/12/12 03:39:28;;;;;;;14.63;2.20;;;;;;;;;;5040781;28;19932;-59
2021/12/12 03:41:56;;;;;;;10.90;1.58;;;;;;;;;;5037047;28;20032;-59
2021/12/12 03:44:25;;;;;;;14.13;2.08;;;;;;;;;;5037209;28;20040;-58
2021/12/12 03:46:54;;;;;;;16.83;2.47;;;;;;;;;;5038843;28;20048;-59
2021/12/12 03:49:20;;;;;;;13.32;2.50;;;;;;;;;;5033510;28;20571;-59
2021/12/12 03:51:47;;;;;;;18.85;2.50;;;;;;;;;;5035935;28;20082;-58
2021/12/12 03:54:13;;;;;;;19.80;2.10;;;;;;;;;;5037518;28;20723;-59
2021/12/12 03:56:41;;;;;;;17.60;2.92;;;;;;;;;;5034604;28;20052;-59
2021/12/12 03:59:07;;;;;;;13.25;2.30;;;;;;;;;;5032953;28;20072;-58
2021/12/12 04:01:44;;;;;;;22.27;2.85;;;;;;;;;;5034029;28;20631;-58
2021/12/12 04:04:32;;;;;;;19.92;2.95;;;;;;;;;;5031601;28;20030;-59
2021/12/12 04:07:00;;;;;;;5.40;2.55;;;;;;;;;;5033670;28;20030;-59
2021/12/12 04:09:25;;;;;;;22.88;3.00;;;;;;;;;;5036350;28;20496;-60
2021/12/12 04:12:00;;;;;;;20.73;3.35;;;;;;;;;;5037558;28;20045;-59
2021/12/12 04:14:26;;;;;;;11.90;2.42;;;;;;;;;;5036671;28;20021;-58
2021/12/12 04:16:58;;;;;;;14.57;2.20;;;;;;;;;;5009088;28;20040;-58
2021/12/12 04:19:27;;;;;;;13.05;2.47;;;;;;;;;;5032648;28;20435;-59
2021/12/12 04:21:54;;;;;;;9.52;2.03;;;;;;;;;;5033467;28;20064;-58
2021/12/12 04:24:33;;;;;;;11.55;2.78;;;;;;;;;;5036704;28;20036;-58
2021/12/12 04:26:59;;;;;;;17.33;2.75;;;;;;;;;;5036019;28;20593;-58
2021/12/12 04:29:37;;;;;;;13.35;2.42;;;;;;;;;;5038634;28;20036;-59
2021/12/12 04:32:21;;;;;;;9.45;2.47;;;;;;;;;;5035775;28;20029;-59
2021/12/12 04:34:51;;;;;;;19.85;2.60;;;;;;;;;;5033804;28;20232;-59
2021/12/12 04:37:18;;;;;;;5.45;2.10;;;;;;;;;;5041131;28;20025;-59
2021/12/12 04:39:52;;;;;;;14.55;2.53;;;;;;;;;;5041953;28;20379;-59
2021/12/12 04:42:33;;;;;;;6.60;3.03;;;;;;;;;;5040356;28;20036;-59
2021/12/12 04:45:41;;;;;;;8.90;3.00;;;;;;;;;;5037889;28;20025;-59
2021/12/12 04:51:13;;;;;;;6.93;2.83;;;;;;;;;;5038796;28;20087;-59
2021/12/12 04:53:48;;;;;;;12.55;2.85;;;;;;;;;;5040027;28;20024;-58
2021/12/12 04:56:48;;;;;;;13.68;2.95;;;;;;;;;;5037432;28;20036;-59
2021/12/12 04:59:34;;;;;;;13.80;3.20;;;;;;;;;;5043535;28;20021;-59
2021/12/12 05:02:19;;;;;;;13.02;3.15;;;;;;;;;;5040350;28;20029;-58
2021/12/12 05:04:48;;;;;;;13.30;3.05;;;;;;;;;;5044369;28;20029;-58
2021/12/12 05:07:17;;;;;;;8.32;2.90;;;;;;;;;;5036183;28;20458;-58
2021/12/12 05:09:53;;;;;;;12.65;2.72;;;;;;;;;;5038815;28;20029;-58
2021/12/12 05:12:27;;;;;;;8.75;2.50;;;;;;;;;;5040858;28;20061;-59
2021/12/12 05:15:00;;;;;;;11.18;2.47;;;;;;;;;;5039732;28;20175;-58
2021/12/12 05:17:35;;;;;;;16.45;3.30;;;;;;;;;;5029207;28;20040;-58
2021/12/12 05:20:06;;;;;;;13.20;2.83;;;;;;;;;;5045158;28;20037;-58
2021/12/12 05:22:37;;;;;;;13.82;3.05;;;;;;;;;;5044209;28;20033;-58
2021/12/12 05:25:08;;;;;;;12.30;2.50;;;;;;;;;;5038123;28;20079;-58
2021/12/12 05:27:36;;;;;;;16.00;3.78;;;;;;;;;;5037037;28;20133;-58
2021/12/12 05:30:06;;;;;;;9.93;2.75;;;;;;;;;;5039180;28;20045;-58
2021/12/12 05:32:34;;;;;;;28.33;3.42;;;;;;;;;;5039410;28;20030;-59
2021/12/12 05:35:01;;;;;;;15.93;2.65;;;;;;;;;;5036905;28;20489;-59
2021/12/12 05:37:27;;;;;;;7.50;2.40;;;;;;;;;;5040751;28;20037;-59
2021/12/12 05:39:54;;;;;;;7.95;2.40;;;;;;;;;;5034209;28;20036;-59
2021/12/12 05:42:21;;;;;;;17.60;2.38;;;;;;;;;;5033692;28;20335;-59
2021/12/12 05:44:48;;;;;;;18.33;2.80;;;;;;;;;;5037245;28;20071;-59
2021/12/12 05:47:14;;;;;;;19.63;3.35;;;;;;;;;;5035174;28;20454;-59
2021/12/12 05:49:41;;;;;;;15.00;2.20;;;;;;;;;;5039188;28;20037;-59
2021/12/12 05:52:14;;;;;;;21.23;3.08;;;;;;;;;;5032350;28;20108;-58
2021/12/12 05:54:40;;;;;;;20.98;3.10;;;;;;;;;;5034786;28;20045;-59
2021/12/12 05:57:09;;;;;;;17.55;3.13;;;;;;;;;;5037178;28;20036;-58
2021/12/12 05:59:36;;;;;;;11.05;2.78;;;;;;;;;;5039813;28;20068;-59
2021/12/12 06:02:05;;;;;;;12.38;2.47;;;;;;;;;;5034689;28;20059;-59
2021/12/12 06:04:31;;;;;;;18.45;2.65;;;;;;;;;;5032519;28;20569;-59
2021/12/12 06:06:57;;;;;;;18.23;3.10;;;;;;;;;;5035992;28;20029;-59
2021/12/12 06:09:22;;;;;;;11.23;2.53;;;;;;;;;;5038096;28;20090;-59
2021/12/12 06:11:52;;;;;;;12.25;2.58;;;;;;;;;;5031422;28;20049;-59
2021/12/12 06:14:17;;;;;;;11.68;2.45;;;;;;;;;;5039267;28;20147;-59
2021/12/12 06:16:44;;;;;;;14.93;2.42;;;;;;;;;;5032583;28;20175;-59
2021/12/12 06:19:20;;;;;;;14.27;2.83;;;;;;;;;;5039671;28;20142;-59
2021/12/12 06:21:49;;;;;;;10.57;2.55;;;;;;;;;;5033830;28;20021;-59
2021/12/12 06:24:15;;;;;;;21.08;3.17;;;;;;;;;;5039286;28;20068;-59
2021/12/12 06:26:41;;;;;;;11.95;2.80;;;;;;;;;;5039423;28;20065;-59
2021/12/12 06:29:07;;;;;;;9.57;1.60;;;;;;;;;;5035279;28;20024;-59
2021/12/12 06:31:39;;;;;;;11.15;2.17;;;;;;;;;;5034649;28;20040;-59
2021/12/12 06:34:05;;;;;;;11.70;2.60;;;;;;;;;;5036612;28;20128;-59
2021/12/12 06:36:32;;;;;;;12.55;2.67;;;;;;;;;;5038165;28;20446;-58
2021/12/12 06:38:58;;;;;;;13.68;2.25;;;;;;;;;;5034697;28;20140;-59
2021/12/12 06:41:24;;;;;;;15.52;2.70;;;;;;;;;;5037767;28;20163;-58
2021/12/12 06:43:50;;;;;;;9.88;2.60;;;;;;;;;;5043014;28;20470;-58
2021/12/12 06:46:18;;;;;;;9.93;2.03;;;;;;;;;;5042341;28;20090;-58
2021/12/12 06:48:44;;;;;;;12.93;2.75;;;;;;;;;;5033288;28;20032;-58
2021/12/12 06:51:10;;;;;;;7.55;1.90;;;;;;;;;;5036082;28;20029;-58
2021/12/12 06:53:40;;;;;;;14.63;2.83;;;;;;;;;;5033657;28;20029;-58
2021/12/12 06:56:08;;;;;;;8.02;2.17;;;;;;;;;;5037768;28;20049;-59
2021/12/12 06:58:34;;;;;;;16.00;3.00;;;;;;;;;;5038702;28;20086;-58
2021/12/12 07:01:06;;;;;;;9.23;2.20;;;;;;;;;;5037453;28;20059;-59
2021/12/12 07:03:32;;;;;;;10.85;2.85;;;;;;;;;;5035471;28;20483;-58
2021/12/12 07:05:58;;;;;;;8.90;2.70;;;;;;;;;;5036632;28;20037;-58
2021/12/12 07:08:24;;;;;;;23.98;2.50;;;;;;;;;;5036372;28;20068;-59
2021/12/12 07:10:50;;;;;;;6.82;2.42;;;;;;;;;;5034385;28;20099;-59
2021/12/12 07:13:17;;;;;;;7.80;2.40;;;;;;;;;;5035490;28;20491;-58
2021/12/12 07:15:50;;;;;;;13.52;3.38;;;;;;;;;;5033713;28;20076;-61
2021/12/12 07:18:19;;;;;;;10.10;2.50;;;;;;;;;;5029819;28;20028;-59
2021/12/12 07:20:49;;;;;;;15.98;2.45;;;;;;;;;;5036305;28;20107;-59
2021/12/12 07:23:15;;;;;;;15.70;2.75;;;;;;;;;;5037960;28;20597;-58
2021/12/12 07:25:43;;;;;;;26.70;3.28;;;;;;;;;;5036358;28;20491;-59
2021/12/12 07:28:09;;;;;;;13.18;2.97;;;;;;;;;;5039070;28;20040;-60
2021/12/12 07:30:36;;;;;;;8.23;2.65;;;;;;;;;;5033971;28;20400;-60
2021/12/12 07:33:04;;;;;;;14.25;2.53;;;;;;;;;;5038562;28;20032;-58
2021/12/12 07:35:33;;;;;;;23.02;3.22;;;;;;;;;;5031579;28;20063;-59
2021/12/12 07:37:59;;;;;;;20.83;3.22;;;;;;;;;;5035833;28;20147;-59
2021/12/12 07:40:24;;;;;;;9.85;2.30;;;;;;;;;;5034346;28;20108;-58
2021/12/12 07:42:51;;;;;;;10.75;2.40;;;;;;;;;;5034794;28;20088;-58
2021/12/12 07:45:20;;;;;;;12.02;2.50;;;;;;;;;;5033741;28;20536;-58
2021/12/12 07:47:47;;;;;;;16.58;2.40;;;;;;;;;;5035759;28;20072;-58
2021/12/12 07:50:16;;;;;;;10.35;2.25;;;;;;;;;;5030655;28;20032;-58
2021/12/12 07:52:45;;;;;;;13.07;2.55;;;;;;;;;;5037125;28;20712;-58
2021/12/12 07:55:11;;;;;;;9.60;2.50;;;;;;;;;;5036398;28;20191;-60
2021/12/12 07:57:38;;;;;;;11.85;2.85;;;;;;;;;;5030928;28;20080;-58
2021/12/12 08:00:12;;;;;;;10.18;2.55;;;;;;;;;;5032477;28;20579;-58
2021/12/12 08:02:40;;;;;;;9.07;1.92;;;;;;;;;;5033168;28;20033;-58
2021/12/12 08:05:07;;;;;;;9.35;2.30;;;;;;;;;;5039198;28;20032;-58
2021/12/12 08:07:34;;;;;;;3.85;1.88;;;;;;;;;;5043517;28;20518;-58
2021/12/12 08:10:01;;;;;;;3.97;1.70;;;;;;;;;;5041000;28;20040;-58
2021/12/12 08:12:29;;;;;;;6.80;1.70;;;;;;;;;;5036284;28;20317;-58
2021/12/12 08:14:56;;;;;;;3.47;1.58;;;;;;;;;;5053994;28;20502;-58
2021/12/12 08:17:22;;;;;;;10.55;2.08;;;;;;;;;;5040854;28;20236;-58
2021/12/12 08:19:55;;;;;;;4.60;1.90;;;;;;;;;;5036695;28;20086;-58
2021/12/12 08:22:21;;;;;;;4.57;1.70;;;;;;;;;;5044530;28;20430;-58
2021/12/12 08:24:47;;;;;;;4.60;1.67;;;;;;;;;;5041745;28;20388;-58
2021/12/12 08:27:13;;;;;;;3.95;1.35;;;;;;;;;;5037301;28;20095;-58
2021/12/12 08:29:39;;;;;;;6.00;1.77;;;;;;;;;;5035237;28;20491;-59
2021/12/12 08:32:09;;;;;;;5.55;1.55;;;;;;;;;;5037131;28;20107;-59
2021/12/12 08:34:35;;;;;;;6.30;1.70;;;;;;;;;;5032918;28;20042;-58
2021/12/12 08:37:02;;;;;;;6.32;1.40;;;;;;;;;;5030675;28;20033;-58
2021/12/12 08:39:29;;;;;;;4.10;1.40;;;;;;;;;;5036029;28;20488;-59
2021/12/12 08:41:57;;;;;;;6.97;2.00;;;;;;;;;;5035178;28;20037;-58
2021/12/12 08:44:24;;;;;;;6.55;1.88;;;;;;;;;;5038975;28;20105;-58
2021/12/12 08:46:52;;;;;;;5.50;1.92;;;;;;;;;;5035545;28;20028;-58
2021/12/12 08:49:20;;;;;;;4.30;1.75;;;;;;;;;;5041228;28;20041;-58
2021/12/12 08:51:54;;;;;;;2.47;1.52;;;;;;;;;;5032858;28;20030;-58
2021/12/12 08:54:26;;;;;;;4.70;1.80;;;;;;;;;;5030536;28;20032;-59
2021/12/12 08:57:05;;;;;;;3.47;1.80;;;;;;;;;;5037605;28;20037;-57
2021/12/12 08:59:35;;;;;;;2.97;1.77;;;;;;;;;;5036280;28;20036;-58
2021/12/12 09:02:07;;;;;;;2.03;1.45;;;;;;;;;;5037652;28;20050;-59
2021/12/12 09:04:37;;;;;;;5.32;1.90;;;;;;;;;;5041141;28;20152;-59
2021/12/12 09:07:15;;;;;;;3.10;1.55;;;;;;;;;;5041890;28;20087;-59
2021/12/12 09:09:49;;;;;;;3.30;1.55;;;;;;;;;;5033756;28;20029;-59
2021/12/12 09:12:22;;;;;;;2.70;1.58;;;;;;;;;;5037908;28;20026;-59
2021/12/12 09:14:58;;;;;;;3.75;1.33;;;;;;;;;;5035338;28;20041;-59
2021/12/12 09:17:33;;;;;;;3.13;1.88;;;;;;;;;;5037356;28;20044;-59
2021/12/12 09:20:04;;;;;;;3.67;1.45;;;;;;;;;;5031965;28;20032;-58
2021/12/12 09:22:41;;;;;;;3.95;1.52;;;;;;;;;;5033363;28;20033;-58
2021/12/12 09:25:24;;;;;;;6.75;1.67;;;;;;;;;;5030544;28;20381;-58
2021/12/12 09:27:54;;;;;;;;;;;;;;;;;;5034105;28;20029;-58
2021/12/12 09:30:23;;;;;;;3.30;1.58;;;;;;;;;;5034760;28;19939;-58
2021/12/12 09:32:48;;;;;;;3.60;1.75;;;;;;;;;;5033366;28;20515;-59
2021/12/12 09:35:37;;;;;;;5.90;1.60;;;;;;;;;;5032231;28;20067;-59
2021/12/12 09:38:15;;;;;;;3.95;1.80;;;;;;;;;;5033261;28;20176;-59
2021/12/12 09:41:20;;;;;;;5.20;1.13;;;;;;;;;;5036818;28;20029;-59
2021/12/12 09:44:29;;;;;;;3.13;0.93;;;;;;;;;;5035661;28;20036;-58
2021/12/12 09:47:28;;;;;;;2.20;0.80;;;;;;;;;;5028019;28;20036;-59
2021/12/12 09:53:28;;;;;;;2.45;0.70;;;;;;;;;;5036644;28;20499;-60
2021/12/12 09:56:05;;;;;;;3.72;0.52;;;;;;;;;;5036926;28;20097;-60
2021/12/12 09:58:42;;;;;;;2.42;0.52;;;;;;;;;;5041207;28;20029;-59
2021/12/12 10:01:23;;;;;;;4.72;0.57;;;;;;;;;;5038732;28;20132;-60
2021/12/12 10:04:17;;;;;;;4.55;0.77;;;;;;;;;;5036764;28;20037;-59
2021/12/12 10:07:04;;;;;;;1.52;0.40;;;;;;;;;;5032505;28;20041;-59
2021/12/12 10:09:57;;;;;;;6.43;0.68;;;;;;;;;;5039859;28;20391;-59
2021/12/12 10:12:34;;;;;;;2.47;0.40;;;;;;;;;;5032074;28;20582;-60
2021/12/12 10:15:11;;;;;;;2.03;0.35;;;;;;;;;;5036510;28;20033;-60
2021/12/12 10:18:06;;;;;;;1.27;0.30;;;;;;;;;;5028505;28;20361;-60
2021/12/12 10:20:47;;;;;;;4.85;0.30;;;;;;;;;;5016438;28;20490;-59
2021/12/12 10:23:15;;;;;;;3.95;0.70;;;;;;;;;;5030263;28;20037;-59
2021/12/12 10:26:16;;;;;;;3.47;0.70;;;;;;;;;;5036358;28;20395;-58
2021/12/12 10:28:50;;;;;;;1.63;0.30;;;;;;;;;;5032733;28;20570;-59
2021/12/12 10:31:36;;;;;;;3.00;0.38;;;;;;;;;;5037822;28;20021;-59
2021/12/12 10:34:08;;;;;;;0.50;0.30;;;;;;;;;;5036731;28;20029;-59
2021/12/12 10:36:39;;;;;;;4.72;0.82;;;;;;;;;;5039025;28;20025;-60
2021/12/12 10:39:17;;;;;;;2.78;0.50;;;;;;;;;;5035460;28;20113;-60
2021/12/12 10:41:47;;;;;;;1.17;0.20;;;;;;;;;;5039491;28;20024;-58
2021/12/12 10:44:19;;;;;;;1.30;0.30;;;;;;;;;;5040829;28;20167;-58
2021/12/12 10:46:55;;;;;;;0.80;0.20;;;;;;;;;;5032057;28;20131;-58
2021/12/12 10:49:35;;;;;;;5.45;0.40;;;;;;;;;;5034441;28;20261;-59
2021/12/12 10:52:07;;;;;;;2.10;0.30;;;;;;;;;;5031518;28;20577;-59
2021/12/12 10:54:54;;;;;;;8.25;0.40;;;;;;;;;;5036091;28;20057;-59
2021/12/12 10:57:26;;;;;;;1.65;0.20;;;;;;;;;;5038646;28;20049;-60
2021/12/12 11:00:01;;;;;;;2.72;0.30;;;;;;;;;;5038920;28;20508;-59
2021/12/12 11:02:32;;;;;;;0.55;0.40;;;;;;;;;;5032007;28;20147;-60
2021/12/12 11:05:08;;;;;;;1.70;0.30;;;;;;;;;;5037029;28;20059;-60
2021/12/12 11:07:44;;;;;;;1.23;0.30;;;;;;;;;;5036491;28;20071;-59
2021/12/12 11:10:18;;;;;;;2.15;0.22;;;;;;;;;;5030847;28;20048;-59
2021/12/12 11:12:49;;;;;;;1.27;0.30;;;;;;;;;;5035727;28;20480;-56
2021/12/12 11:15:27;;;;;;;0.65;0.20;;;;;;;;;;5036300;28;20112;-58
2021/12/12 11:18:05;;;;;;;1.27;0.30;;;;;;;;;;5032638;28;20026;-59
2021/12/12 11:20:37;;;;;;;1.17;0.40;;;;;;;;;;5030745;28;20039;-59
2021/12/12 11:23:08;;;;;;;1.35;0.28;;;;;;;;;;5034052;28;20487;-59
2021/12/12 11:25:41;;;;;;;3.07;0.70;;;;;;;;;;5034263;28;20399;-58
2021/12/12 11:28:17;;;;;;;2.25;0.35;;;;;;;;;;5030591;28;20029;-59
2021/12/12 11:30:49;;;;;;;1.00;0.55;;;;;;;;;;5037260;28;20028;-57
2021/12/12 11:33:17;;;;;;;3.50;0.40;;;;;;;;;;5040166;28;20313;-58
2021/12/12 11:35:46;;;;;;;2.25;0.40;;;;;;;;;;5033090;28;20125;-59
2021/12/12 11:38:22;;;;;;;3.72;0.32;;;;;;;;;;5038501;28;20032;-59
2021/12/12 11:41:03;;;;;;;0.57;0.25;;;;;;;;;;5034061;28;20838;-59
2021/12/12 11:43:42;;;;;;;1.05;0.25;;;;;;;;;;5043087;28;20110;-59
2021/12/12 11:46:20;;;;;;;0.47;0.20;;;;;;;;;;5043150;28;20102;-59
2021/12/12 11:48:52;;;;;;;0.30;0.17;;;;;;;;;;5038299;28;20151;-59
2021/12/12 11:51:21;;;;;;;2.13;0.25;;;;;;;;;;5035935;28;20065;-59
2021/12/12 11:53:52;;;;;;;3.13;0.40;;;;;;;;;;5039104;28;20572;-59
2021/12/12 11:56:45;;;;;;;0.20;0.20;;;;;;;;;;5032520;28;20087;-59
2021/12/12 11:59:38;;;;;;;0.20;0.20;;;;;;;;;;5035106;28;20124;-59
2021/12/12 12:02:35;;;;;;;0.60;0.28;;;;;;;;;;5039824;28;20080;-59
2021/12/12 12:05:12;;;;;;;1.38;0.20;;;;;;;;;;5013721;28;20061;-59
2021/12/12 12:07:43;;;;;;;1.55;0.30;;;;;;;;;;5039120;28;20124;-59
2021/12/12 12:10:35;;;;;;;2.30;0.60;;;;;;;;;;5037137;28;20029;-59
2021/12/12 12:13:19;;;;;;;0.22;0.22;;;;;;;;;;5038062;28;20059;-59
2021/12/12 12:15:54;;;;;;;1.55;0.32;;;;;;;;;;5039988;28;20037;-59
2021/12/12 12:18:41;;;;;;;0.30;0.30;;;;;;;;;;5033382;28;20510;-58
2021/12/12 12:21:13;;;;;;;1.30;0.60;;;;;;;;;;5036667;28;20031;-59
2021/12/12 12:24:00;;;;;;;0.30;0.30;;;;;;;;;;5035319;28;20094;-59
2021/12/12 12:29:28;;;;;;;1.05;0.60;;;;;;;;;;5035521;28;20626;-58
2021/12/12 12:32:12;;;;;;;0.60;0.30;;;;;;;;;;5039328;28;20060;-60
2021/12/12 12:34:49;;;;;;;0.55;0.40;;;;;;;;;;5034568;28;20492;-59
2021/12/12 12:37:52;;;;;;;0.60;0.30;;;;;;;;;;5036488;28;20551;-59
2021/12/12 12:40:36;;;;;;;1.70;0.40;;;;;;;;;;5038320;28;20025;-59
2021/12/12 12:43:39;;;;;;;0.63;0.28;;;;;;;;;;5034104;28;20032;-60
2021/12/12 12:46:43;;;;;;;0.20;0.20;;;;;;;;;;5037429;28;20041;-59
2021/12/12 12:49:45;;;;;;;0.75;0.43;;;;;;;;;;5032980;28;20328;-59
2021/12/12 12:52:35;;;;;;;1.08;0.20;;;;;;;;;;5037744;28;20057;-59
2021/12/12 12:56:44;;;;;;;1.23;0.40;;;;;;;;;;5052864;27;20407;-58
2021/12/12 12:59:29;;;;;;;0.80;0.40;;;;;;;;;;5049805;28;20039;-59
2021/12/12 13:02:24;;;;;;;0.30;0.30;;;;;;;;;;5056264;28;20580;-59
2021/12/12 13:05:07;;;;;;;0.30;0.30;;;;;;;;;;5050456;28;20051;-58
2021/12/12 13:07:55;;;;;;;0.20;0.20;;;;;;;;;;5061527;28;20112;-59
2021/12/12 13:10:24;;;;;;;0.30;0.30;;;;;;;;;;5058077;28;20029;-59
2021/12/12 13:13:03;;;;;;;0.93;0.43;;;;;;;;;;5058663;28;20025;-59
2021/12/12 13:15:47;;;;;;;0.20;0.20;;;;;;;;;;5050080;28;20519;-59
2021/12/12 13:18:44;;;;;;;0.30;0.15;;;;;;;;;;5056795;28;20041;-59
2021/12/12 13:21:21;;;;;;;0.65;0.30;;;;;;;;;;5058196;28;20025;-60
2021/12/12 13:24:13;;;;;;;2.08;0.25;;;;;;;;;;5046930;28;20025;-60
2021/12/12 13:27:27;;;;;;;0.30;0.30;;;;;;;;;;5046178;28;20447;-60
2021/12/12 13:30:13;;;;;;;0.80;0.40;;;;;;;;;;5054140;28;20033;-60
2021/12/12 13:33:06;;;;;;;0.55;0.30;;;;;;;;;;5048665;28;20037;-60
2021/12/12 13:35:36;;;;;;;0.40;0.25;;;;;;;;;;5049035;28;20017;-59
2021/12/12 13:38:13;;;;;;;1.00;0.40;;;;;;;;;;5047017;28;20479;-60
2021/12/12 13:41:12;;;;;;;0.82;0.30;;;;;;;;;;5047609;28;20029;-58
2021/12/12 13:44:14;;;;;;;0.65;0.30;;;;;;;;;;5045887;28;20028;-59
2021/12/12 13:46:47;;;;;;;0.80;0.40;;;;;;;;;;5042792;28;20033;-59
2021/12/12 13:49:41;;;;;;;0.32;0.30;;;;;;;;;;5046570;28;20039;-58
2021/12/12 13:52:30;;;;;;;2.45;0.40;;;;;;;;;;5044266;28;20045;-58
2021/12/12 13:55:12;;;;;;;1.13;0.30;;;;;;;;;;5043643;28;20414;-59
2021/12/12 13:58:04;;;;;;;4.22;0.65;;;;;;;;;;5046374;28;20400;-59
2021/12/12 14:00:34;;;;;;;;;;;;;;;;;;5041657;28;20045;-61
2021/12/12 14:03:06;;;;;;;54.95;4.93;;;;;;;;;;5041214;28;19951;-61
2021/12/12 14:05:44;;;;;;;0.80;0.38;;;;;;;;;;5034710;28;20017;-71
2021/12/12 14:08:23;;;;;;;1.05;0.20;;;;;;;;;;5026077;28;20037;-71
2021/12/12 14:11:00;;;;;;;1.08;0.47;;;;;;;;;;5034151;28;20447;-64
2021/12/12 14:13:30;;;;;;;5.28;0.57;;;;;;;;;;5027878;28;20033;-64
2021/12/12 14:16:15;;;;;;;3.03;0.50;;;;;;;;;;5036047;28;20034;-64
2021/12/12 14:18:45;;;;;;;1.38;0.43;;;;;;;;;;5026485;28;20037;-64
2021/12/12 14:21:14;;;;;;;1.45;0.38;;;;;;;;;;5029663;28;20051;-65
2021/12/12 14:23:40;;;;;;;6.20;0.40;;;;;;;;;;5027399;28;20070;-64
2021/12/12 14:26:13;;;;;;;5.30;1.30;;;;;;;;;;5029621;28;20603;-65
2021/12/12 14:28:43;;;;;;;2.13;0.40;;;;;;;;;;5028623;28;20029;-65
2021/12/12 14:31:09;;;;;;;2.28;0.32;;;;;;;;;;5023383;28;20031;-64
2021/12/12 14:33:42;;;;;;;4.68;0.50;;;;;;;;;;5028462;28;20428;-64
2021/12/12 14:36:18;;;;;;;3.50;0.70;;;;;;;;;;5037690;28;20065;-65
2021/12/12 14:38:45;;;;;;;3.80;1.40;;;;;;;;;;5044718;28;20055;-66
2021/12/12 14:41:12;;;;;;;2.22;0.50;;;;;;;;;;5032941;28;20035;-66
2021/12/12 14:43:47;;;;;;;2.92;0.45;;;;;;;;;;5032600;28;20029;-64
2021/12/12 14:46:23;;;;;;;7.47;0.65;;;;;;;;;;5034791;28;20132;-65
2021/12/12 14:49:12;;;;;;;5.82;1.15;;;;;;;;;;5031180;28;20052;-65
2021/12/12 14:51:55;;;;;;;5.70;0.70;;;;;;;;;;5033066;28;21471;-65
2021/12/12 14:54:24;;;;;;;2.20;0.70;;;;;;;;;;5032032;28;20049;-65
2021/12/12 14:56:59;;;;;;;3.05;0.60;;;;;;;;;;5039962;28;20086;-65
2021/12/12 14:59:31;;;;;;;7.68;0.80;;;;;;;;;;5034765;28;20111;-65
2021/12/12 15:02:17;;;;;;;7.65;0.77;;;;;;;;;;5037296;28;20029;-66
2021/12/12 15:05:18;;;;;;;3.70;0.70;;;;;;;;;;5034396;28;20033;-65
2021/12/12 15:07:46;;;;;;;7.00;0.98;;;;;;;;;;5031872;28;20025;-65
2021/12/12 15:10:14;;;;;;;4.80;0.90;;;;;;;;;;5034947;28;20031;-65
2021/12/12 15:12:45;;;;;;;2.60;0.60;;;;;;;;;;5035539;28;20507;-63
2021/12/12 15:15:23;;;;;;;5.50;0.80;;;;;;;;;;5032751;28;20037;-64
2021/12/12 15:17:53;;;;;;;7.32;0.70;;;;;;;;;;5034101;28;20025;-65
2021/12/12 15:20:30;;;;;;;5.95;0.93;;;;;;;;;;5039209;28;20465;-65
2021/12/12 15:22:59;;;;;;;4.15;0.70;;;;;;;;;;5036488;28;20075;-65
2021/12/12 15:25:33;;;;;;;4.35;0.80;;;;;;;;;;5033858;28;20033;-65
2021/12/12 15:28:08;;;;;;;7.82;1.15;;;;;;;;;;5035928;28;20090;-65
2021/12/12 15:30:34;;;;;;;2.92;0.82;;;;;;;;;;5036736;28;20053;-64
2021/12/12 15:33:04;;;;;;;2.65;0.80;;;;;;;;;;5029946;28;20034;-65
2021/12/12 15:35:34;;;;;;;2.97;0.70;;;;;;;;;;5029356;28;20110;-64
2021/12/12 15:38:00;;;;;;;12.60;0.90;;;;;;;;;;5033920;28;20575;-64
2021/12/12 15:40:26;;;;;;;4.35;0.50;;;;;;;;;;5030664;28;20355;-63